createdAt,value
2022-11-29T00:01:18.658Z,100988.03
2022-11-29T00:03:45.921Z,100998.09
2022-11-29T00:06:15.886Z,100999.78
2022-11-29T00:08:43.854Z,100998.31
2022-11-29T00:11:34.787Z,101013.25
2022-11-29T00:14:02.145Z,101008.25
2022-11-29T00:16:29.098Z,101003.34
2022-11-29T00:18:56.089Z,100995.44
2022-11-29T00:21:22.968Z,101009.81
2022-11-29T00:23:49.860Z,101023.56
2022-11-29T00:26:16.929Z,101025.13
2022-11-29T00:28:43.861Z,101032.91
2022-11-29T00:31:31.054Z,101034.66
2022-11-29T00:33:59.399Z,101031.94
2022-11-29T00:36:27.206Z,101026.72
2022-11-29T00:38:54.108Z,101023.22
2022-11-29T00:41:21.116Z,101024.06
2022-11-29T00:43:48.356Z,101027.06
2022-11-29T00:46:15.439Z,101019.94
2022-11-29T00:48:42.388Z,101025.47
2022-11-29T00:51:09.708Z,101021.13
2022-11-29T00:53:37.067Z,101035.72
2022-11-29T00:56:05.578Z,101024.25
2022-11-29T00:58:33.515Z,101037.44
2022-11-29T01:01:00.514Z,101019.22
2022-11-29T01:03:27.480Z,101030.91
2022-11-29T01:06:07.797Z,101032.09
2022-11-29T01:08:34.946Z,101022.31
2022-11-29T01:11:11.643Z,101026.97
2022-11-29T01:13:38.818Z,101020.13
2022-11-29T01:16:06.475Z,101008.03
2022-11-29T01:18:34.528Z,101006.56
2022-11-29T01:21:10.033Z,101008.19
2022-11-29T01:23:37.992Z,100994.16
2022-11-29T01:26:10.811Z,100997.31
2022-11-29T01:28:38.995Z,100990.81
2022-11-29T01:31:10.677Z,100986.34
2022-11-29T01:33:38.335Z,100983.69
2022-11-29T01:36:06.716Z,100970.66
2022-11-29T01:38:34.303Z,100973.28
2022-11-29T01:41:12.828Z,100970.03
2022-11-29T01:43:57.599Z,100978.72
2022-11-29T01:46:25.647Z,100967.91
2022-11-29T01:48:56.664Z,100982.91
2022-11-29T01:51:25.209Z,100964.84
2022-11-29T01:53:52.079Z,100960.47
2022-11-29T01:56:19.013Z,100952.13
2022-11-29T01:58:46.276Z,100964.28
2022-11-29T02:01:14.452Z,100963.66
2022-11-29T02:03:41.404Z,100954.59
2022-11-29T02:06:08.727Z,100960.94
2022-11-29T02:08:41.623Z,100955.53
2022-11-29T02:11:26.781Z,100942.50
2022-11-29T02:14:08.844Z,100930.31
2022-11-29T02:17:00.587Z,100954.09
2022-11-29T02:19:56.766Z,100951.63
2022-11-29T02:22:38.499Z,100943.56
2022-11-29T02:25:36.294Z,100973.44
2022-11-29T02:28:12.022Z,100968.94
2022-11-29T02:30:47.926Z,100973.69
2022-11-29T02:33:39.017Z,100973.41
2022-11-29T02:36:24.687Z,100977.34
2022-11-29T02:39:42.177Z,100974.09
2022-11-29T02:42:17.847Z,100976.00
2022-11-29T02:45:02.853Z,100969.22
2022-11-29T02:48:01.454Z,100952.25
2022-11-29T02:50:36.710Z,100966.31
2022-11-29T02:53:18.945Z,100960.53
2022-11-29T02:56:06.152Z,100972.53
2022-11-29T02:58:51.090Z,100972.41
2022-11-29T03:02:07.184Z,100979.38
2022-11-29T03:04:43.922Z,100975.00
2022-11-29T03:07:39.207Z,100986.19
2022-11-29T03:10:20.958Z,100974.59
2022-11-29T03:12:52.089Z,100986.72
2022-11-29T03:15:46.292Z,100980.53
2022-11-29T03:18:46.079Z,100985.88
2022-11-29T03:21:20.740Z,100970.97
2022-11-29T03:23:51.163Z,100975.19
2022-11-29T03:26:21.048Z,100956.00
2022-11-29T03:28:56.853Z,100947.56
2022-11-29T03:31:47.763Z,100960.53
2022-11-29T03:34:23.137Z,100950.06
2022-11-29T03:36:58.698Z,100962.34
2022-11-29T03:39:34.486Z,100965.00
2022-11-29T03:42:06.493Z,100965.91
2022-11-29T03:44:45.147Z,100968.38
2022-11-29T03:47:22.108Z,100969.19
2022-11-29T03:50:03.299Z,100971.78
2022-11-29T03:52:47.624Z,100980.97
2022-11-29T03:55:49.392Z,100978.66
2022-11-29T03:58:25.180Z,100970.69
2022-11-29T04:00:51.979Z,100985.47
2022-11-29T04:03:57.848Z,100987.97
2022-11-29T04:06:40.989Z,101000.00
2022-11-29T04:09:22.901Z,101010.81
2022-11-29T04:12:17.589Z,101018.22
2022-11-29T04:15:21.985Z,101031.72
2022-11-29T04:18:00.663Z,101005.47
2022-11-29T04:20:52.186Z,101016.22
2022-11-29T04:23:40.351Z,101013.19
2022-11-29T04:26:48.360Z,101027.78
2022-11-29T04:29:47.557Z,101032.22
2022-11-29T04:32:34.790Z,101020.31
2022-11-29T04:35:30.130Z,101025.38
2022-11-29T04:38:02.782Z,101022.47
2022-11-29T04:40:38.794Z,101017.84
2022-11-29T04:43:20.566Z,101019.53
2022-11-29T04:45:53.724Z,101006.28
2022-11-29T04:48:32.853Z,101021.47
2022-11-29T04:51:12.919Z,101025.66
2022-11-29T04:53:52.265Z,101016.06
2022-11-29T04:56:55.065Z,101003.25
2022-11-29T04:59:31.018Z,101003.59
2022-11-29T05:02:22.549Z,101004.44
2022-11-29T05:05:02.910Z,101011.47
2022-11-29T05:07:50.315Z,101013.94
2022-11-29T05:10:37.501Z,101003.41
2022-11-29T05:13:26.537Z,101006.81
2022-11-29T05:15:59.332Z,101012.59
2022-11-29T05:18:49.308Z,101010.41
2022-11-29T05:21:30.613Z,101004.00
2022-11-29T05:24:35.484Z,101016.22
2022-11-29T05:27:11.842Z,101023.66
2022-11-29T05:29:42.147Z,101024.38
2022-11-29T05:32:35.695Z,101025.25
2022-11-29T05:35:33.531Z,101030.34
2022-11-29T05:38:25.806Z,101018.59
2022-11-29T05:41:22.297Z,101023.72
2022-11-29T05:44:10.183Z,101022.00
2022-11-29T05:46:56.882Z,101037.69
2022-11-29T05:49:42.103Z,101038.81
2022-11-29T05:53:02.587Z,101037.34
2022-11-29T05:55:42.540Z,101047.22
2022-11-29T05:58:28.580Z,101042.31
2022-11-29T06:01:15.075Z,101033.31
2022-11-29T06:04:00.009Z,101054.69
2022-11-29T06:06:47.874Z,101040.06
2022-11-29T06:09:27.005Z,101044.75
2022-11-29T06:12:21.362Z,101032.66
2022-11-29T06:15:21.442Z,101036.06
2022-11-29T06:17:57.504Z,101055.22
2022-11-29T06:20:43.746Z,101048.59
2022-11-29T06:23:29.585Z,101066.22
2022-11-29T06:26:11.777Z,101061.91
2022-11-29T06:28:44.832Z,101065.88
2022-11-29T06:31:29.768Z,101058.13
2022-11-29T06:34:12.839Z,101065.22
2022-11-29T06:37:01.145Z,101053.41
2022-11-29T06:39:28.616Z,101064.56
2022-11-29T06:41:55.750Z,101057.53
2022-11-29T06:44:22.959Z,101066.59
2022-11-29T06:47:05.061Z,101067.63
2022-11-29T06:49:43.945Z,101065.72
2022-11-29T06:52:27.588Z,101069.91
2022-11-29T06:55:21.372Z,101073.53
2022-11-29T06:57:57.352Z,101062.16
2022-11-29T07:00:27.221Z,101064.78
2022-11-29T07:03:34.419Z,101080.50
2022-11-29T07:06:09.998Z,101079.56
2022-11-29T07:08:38.466Z,101080.75
2022-11-29T07:11:05.638Z,101079.69
2022-11-29T07:13:32.828Z,101080.84
2022-11-29T07:16:16.069Z,101071.75
2022-11-29T07:19:07.236Z,101071.03
2022-11-29T07:21:54.934Z,101072.88
2022-11-29T07:24:39.742Z,101064.41
2022-11-29T07:27:27.984Z,101074.53
2022-11-29T07:30:17.005Z,101072.78
2022-11-29T07:33:00.524Z,101078.25
2022-11-29T07:35:30.696Z,101074.22
2022-11-29T07:38:19.039Z,101087.94
2022-11-29T07:41:11.989Z,101082.75
2022-11-29T07:43:44.533Z,101070.53
2022-11-29T07:46:11.465Z,101074.84
2022-11-29T07:48:38.343Z,101074.31
2022-11-29T07:51:05.391Z,101083.19
2022-11-29T07:53:34.231Z,101080.78
2022-11-29T07:56:01.121Z,101088.34
2022-11-29T07:58:28.124Z,101082.41
2022-11-29T08:00:55.060Z,101084.78
2022-11-29T08:03:21.998Z,101079.44
2022-11-29T08:05:48.921Z,101087.63
2022-11-29T08:08:16.109Z,101077.03
2022-11-29T08:10:43.494Z,101080.69
2022-11-29T08:13:10.448Z,101078.25
2022-11-29T08:15:37.351Z,101079.91
2022-11-29T08:18:04.541Z,101082.31
2022-11-29T08:20:31.471Z,101076.94
2022-11-29T08:22:59.636Z,101091.06
2022-11-29T08:25:28.170Z,101093.75
2022-11-29T08:27:56.130Z,101100.28
2022-11-29T08:30:24.059Z,101091.66
2022-11-29T08:32:51.982Z,101090.44
2022-11-29T08:35:20.889Z,101082.34
2022-11-29T08:37:47.982Z,101091.81
2022-11-29T08:40:15.093Z,101096.28
2022-11-29T08:42:42.174Z,101093.97
2022-11-29T08:45:11.042Z,101094.13
2022-11-29T08:47:39.014Z,101071.50
2022-11-29T08:50:15.000Z,101068.16
2022-11-29T08:53:06.102Z,101064.84
2022-11-29T08:55:36.621Z,101067.09
2022-11-29T08:58:06.834Z,101057.63
2022-11-29T09:00:34.598Z,101066.69
2022-11-29T09:03:24.491Z,101055.22
2022-11-29T09:05:51.579Z,101059.59
2022-11-29T09:08:19.091Z,101063.94
2022-11-29T09:10:46.517Z,101060.69
2022-11-29T09:13:13.523Z,101053.59
2022-11-29T09:15:42.339Z,101054.59
2022-11-29T09:18:09.515Z,101056.66
2022-11-29T09:20:36.550Z,101059.25
2022-11-29T09:23:03.862Z,101053.44
2022-11-29T09:25:30.767Z,101059.81
2022-11-29T09:28:01.963Z,101048.09
2022-11-29T09:30:32.069Z,101043.75
2022-11-29T09:33:05.234Z,101025.41
2022-11-29T09:35:33.855Z,101030.69
2022-11-29T09:38:00.885Z,101034.13
2022-11-29T09:40:33.008Z,101025.28
2022-11-29T09:43:14.215Z,101020.25
2022-11-29T09:45:46.326Z,101029.59
2022-11-29T09:48:24.683Z,101029.47
2022-11-29T09:51:24.177Z,101038.50
2022-11-29T09:54:32.308Z,101032.28
2022-11-29T09:56:59.294Z,101020.13
2022-11-29T09:59:37.519Z,101032.19
2022-11-29T10:02:26.601Z,101028.72
2022-11-29T10:05:03.294Z,101020.66
2022-11-29T10:07:39.688Z,101012.69
2022-11-29T10:10:18.886Z,101009.03
2022-11-29T10:12:53.744Z,101007.72
2022-11-29T10:15:39.729Z,101004.97
2022-11-29T10:18:27.125Z,101012.00
2022-11-29T10:20:58.589Z,100995.00
2022-11-29T10:23:33.220Z,101006.19
2022-11-29T10:26:00.595Z,101004.50
2022-11-29T10:28:33.033Z,101011.44
2022-11-29T10:31:27.916Z,101005.56
2022-11-29T10:33:59.574Z,101003.16
2022-11-29T10:36:55.676Z,101005.78
2022-11-29T10:39:42.314Z,101003.88
2022-11-29T10:42:37.394Z,101010.91
2022-11-29T10:45:09.826Z,101012.00
2022-11-29T10:47:36.916Z,101024.00
2022-11-29T10:50:04.136Z,101002.31
2022-11-29T10:52:31.303Z,101014.38
2022-11-29T10:55:00.200Z,101010.41
2022-11-29T10:57:27.486Z,101002.72
2022-11-29T11:00:11.665Z,101010.41
2022-11-29T11:02:38.626Z,101008.28
2022-11-29T11:05:15.504Z,101002.53
2022-11-29T11:07:42.524Z,101010.59
2022-11-29T11:10:28.378Z,101012.59
2022-11-29T11:13:06.919Z,101002.59
2022-11-29T11:15:34.469Z,101015.66
2022-11-29T11:18:05.069Z,101014.25
2022-11-29T11:20:35.259Z,101017.66
2022-11-29T11:23:21.552Z,101005.41
2022-11-29T11:25:50.223Z,101006.28
2022-11-29T11:28:27.364Z,101005.69
2022-11-29T11:31:08.511Z,101004.75
2022-11-29T11:33:37.834Z,100999.53
2022-11-29T11:36:09.732Z,101000.81
2022-11-29T11:38:58.145Z,100995.63
2022-11-29T11:41:56.578Z,100993.03
2022-11-29T11:44:52.407Z,100990.47
2022-11-29T11:47:25.926Z,100994.78
2022-11-29T11:50:04.831Z,100985.94
2022-11-29T11:52:50.597Z,101001.72
2022-11-29T11:55:43.939Z,101004.63
2022-11-29T11:58:13.873Z,101021.41
2022-11-29T12:01:09.397Z,101021.47
2022-11-29T12:03:54.859Z,101020.44
2022-11-29T12:06:50.127Z,101023.88
2022-11-29T12:09:35.461Z,101016.78
2022-11-29T12:12:12.308Z,101023.06
2022-11-29T12:15:01.103Z,101022.25
2022-11-29T12:17:47.618Z,101020.56
2022-11-29T12:20:28.563Z,101017.16
2022-11-29T12:23:26.858Z,101019.22
2022-11-29T12:26:13.732Z,101000.06
2022-11-29T12:28:46.943Z,100990.34
2022-11-29T12:31:32.428Z,101008.81
2022-11-29T12:34:01.985Z,101003.53
2022-11-29T12:36:31.751Z,101001.66
2022-11-29T12:39:17.709Z,100998.69
2022-11-29T12:41:54.514Z,101012.84
2022-11-29T12:44:21.520Z,101013.63
2022-11-29T12:47:35.331Z,101011.91
2022-11-29T12:50:24.454Z,101018.03
2022-11-29T12:53:15.795Z,101020.84
2022-11-29T12:55:57.367Z,101022.56
2022-11-29T12:58:40.059Z,101024.16
2022-11-29T13:01:31.235Z,101030.22
2022-11-29T13:04:12.940Z,101044.13
2022-11-29T13:06:56.570Z,101040.69
2022-11-29T13:09:42.183Z,101046.03
2022-11-29T13:12:40.648Z,101045.44
2022-11-29T13:15:17.858Z,101047.03
2022-11-29T13:17:51.056Z,101050.50
2022-11-29T13:20:41.985Z,101048.88
2022-11-29T13:24:07.948Z,101054.22
2022-11-29T13:26:33.107Z,101056.00
2022-11-29T13:29:02.349Z,101050.59
2022-11-29T13:31:30.226Z,101056.03
2022-11-29T13:34:06.204Z,101057.97
2022-11-29T13:36:57.892Z,101058.03
2022-11-29T13:39:52.295Z,101066.03
2022-11-29T13:42:46.806Z,101071.31
2022-11-29T13:45:24.587Z,101061.69
2022-11-29T13:47:56.577Z,101060.81
2022-11-29T13:50:40.410Z,101058.16
2022-11-29T13:53:23.039Z,101059.91
2022-11-29T13:56:02.015Z,101054.66
2022-11-29T13:58:28.859Z,101066.97
2022-11-29T14:01:01.722Z,101062.38
2022-11-29T14:03:30.436Z,101064.31
2022-11-29T14:06:21.023Z,101050.25
2022-11-29T14:12:10.084Z,101060.72
2022-11-29T14:15:01.683Z,101072.13
2022-11-29T14:18:02.964Z,101072.06
2022-11-29T14:20:29.802Z,101075.59
2022-11-29T14:23:05.737Z,101072.22
2022-11-29T14:25:52.117Z,101080.09
2022-11-29T14:28:22.229Z,101070.38
2022-11-29T14:31:03.472Z,101075.69
2022-11-29T14:33:37.397Z,101080.88
2022-11-29T14:36:23.172Z,101082.72
2022-11-29T14:38:59.270Z,101083.50
2022-11-29T14:41:42.263Z,101088.00
2022-11-29T14:44:20.422Z,101073.84
2022-11-29T14:46:48.864Z,101079.22
2022-11-29T14:49:23.773Z,101073.00
2022-11-29T14:52:10.619Z,101083.53
2022-11-29T14:54:54.435Z,101083.53
2022-11-29T14:57:49.923Z,101081.78
2022-11-29T15:00:29.486Z,101079.22
2022-11-29T15:02:59.426Z,101082.75
2022-11-29T15:05:36.031Z,101088.78
2022-11-29T15:08:19.128Z,101095.88
2022-11-29T15:10:57.318Z,101091.53
2022-11-29T15:13:31.690Z,101085.31
2022-11-29T15:16:20.025Z,101091.41
2022-11-29T15:18:59.612Z,101091.38
2022-11-29T15:22:17.385Z,101094.81
2022-11-29T15:24:59.888Z,101088.69
2022-11-29T15:27:27.182Z,101093.06
2022-11-29T15:29:54.133Z,101086.00
2022-11-29T15:32:28.164Z,101086.03
2022-11-29T15:34:56.361Z,101095.69
2022-11-29T15:37:39.669Z,101091.31
2022-11-29T15:40:12.561Z,101103.56
2022-11-29T15:43:13.135Z,101104.34
2022-11-29T15:45:40.566Z,101098.28
2022-11-29T15:48:28.573Z,101113.09
2022-11-29T15:51:04.667Z,101106.09
2022-11-29T15:53:42.218Z,101107.00
2022-11-29T15:56:20.740Z,101104.38
2022-11-29T15:58:48.659Z,101098.38
2022-11-29T16:01:21.566Z,101108.75
2022-11-29T16:03:52.414Z,101121.13
2022-11-29T16:06:32.549Z,101121.13
2022-11-29T16:09:00.705Z,101117.56
2022-11-29T16:11:30.260Z,101126.47
2022-11-29T16:14:04.576Z,101122.13
2022-11-29T16:16:32.928Z,101124.84
2022-11-29T16:19:36.303Z,101123.09
2022-11-29T16:22:16.615Z,101132.66
2022-11-29T16:24:53.522Z,101130.97
2022-11-29T16:27:22.654Z,101125.75
2022-11-29T16:29:51.985Z,101123.94
2022-11-29T16:32:42.909Z,101122.97
2022-11-29T16:35:18.600Z,101128.22
2022-11-29T16:37:46.583Z,101137.06
2022-11-29T16:40:31.304Z,101128.22
2022-11-29T16:43:04.548Z,101127.47
2022-11-29T16:45:42.940Z,101120.50
2022-11-29T16:48:22.040Z,101130.16
2022-11-29T16:51:23.889Z,101139.84
2022-11-29T16:53:53.044Z,101148.63
2022-11-29T16:56:25.439Z,101154.75
2022-11-29T16:59:25.050Z,101144.22
2022-11-29T17:01:49.459Z,101154.78
2022-11-29T17:04:24.208Z,101156.53
2022-11-29T17:06:56.413Z,101151.19
2022-11-29T17:09:26.673Z,101153.03
2022-11-29T17:11:55.663Z,101147.75
2022-11-29T17:14:22.873Z,101146.88
2022-11-29T17:16:50.567Z,101153.88
2022-11-29T17:19:19.849Z,101155.63
2022-11-29T17:21:46.956Z,101146.84
2022-11-29T17:24:16.872Z,101160.03
2022-11-29T17:26:44.705Z,101157.41
2022-11-29T17:29:13.021Z,101167.91
2022-11-29T17:31:42.474Z,101162.69
2022-11-29T17:34:09.514Z,101165.31
2022-11-29T17:36:37.348Z,101168.81
2022-11-29T17:39:05.164Z,101162.63
2022-11-29T17:41:32.995Z,101168.72
2022-11-29T17:44:00.623Z,101171.38
2022-11-29T17:46:36.595Z,101153.84
2022-11-29T17:49:06.431Z,101167.81
2022-11-29T17:51:52.170Z,101172.94
2022-11-29T17:54:21.041Z,101174.06
2022-11-29T17:56:50.117Z,101182.75
2022-11-29T17:59:17.172Z,101188.13
2022-11-29T18:01:47.154Z,101187.25
2022-11-29T18:04:14.580Z,101189.00
2022-11-29T18:06:41.939Z,101195.16
2022-11-29T18:09:10.683Z,101189.88
2022-11-29T18:11:47.477Z,101188.09
2022-11-29T18:14:19.516Z,101182.84
2022-11-29T18:16:46.590Z,101189.88
2022-11-29T18:19:16.659Z,101194.19
2022-11-29T18:21:43.917Z,101196.91
2022-11-29T18:24:11.269Z,101196.06
2022-11-29T18:26:38.657Z,101198.69
2022-11-29T18:29:06.618Z,101192.50
2022-11-29T18:31:36.771Z,101196.03
2022-11-29T18:34:10.012Z,101192.50
2022-11-29T18:36:43.161Z,101195.97
2022-11-29T18:39:20.540Z,101200.31
2022-11-29T18:41:49.268Z,101202.84
2022-11-29T18:44:19.517Z,101202.00
2022-11-29T18:46:46.756Z,101201.22
2022-11-29T18:49:16.498Z,101194.03
2022-11-29T18:51:45.409Z,101196.84
2022-11-29T18:54:13.921Z,101205.59
2022-11-29T18:56:41.819Z,101201.69
2022-11-29T18:59:11.369Z,101190.44
2022-11-29T19:01:43.296Z,101199.19
2022-11-29T19:04:14.221Z,101191.97
2022-11-29T19:06:41.935Z,101193.72
2022-11-29T19:09:14.360Z,101196.25
2022-11-29T19:11:41.438Z,101186.84
2022-11-29T19:14:14.406Z,101191.25
2022-11-29T19:16:45.027Z,101194.00
2022-11-29T19:19:12.708Z,101185.97
2022-11-29T19:21:42.699Z,101193.06
2022-11-29T19:24:15.282Z,101188.47
2022-11-29T19:26:47.280Z,101195.38
2022-11-29T19:29:15.308Z,101200.81
2022-11-29T19:31:43.208Z,101201.13
2022-11-29T19:34:10.354Z,101199.56
2022-11-29T19:36:43.738Z,101207.56
2022-11-29T19:39:13.809Z,101208.69
2022-11-29T19:41:42.667Z,101201.91
2022-11-29T19:44:09.749Z,101197.38
2022-11-29T19:46:42.676Z,101205.03
2022-11-29T19:49:10.583Z,101212.09
2022-11-29T19:51:37.960Z,101218.50
2022-11-29T19:54:07.209Z,101220.34
2022-11-29T19:56:34.516Z,101209.09
2022-11-29T19:59:01.630Z,101218.47
2022-11-29T20:01:37.872Z,101208.75
2022-11-29T20:04:07.588Z,101210.66
2022-11-29T20:06:34.642Z,101209.53
2022-11-29T20:09:02.328Z,101206.13
2022-11-29T20:11:29.416Z,101201.75
2022-11-29T20:13:58.588Z,101202.56
2022-11-29T20:16:26.913Z,101194.59
2022-11-29T20:18:55.019Z,101205.63
2022-11-29T20:21:25.079Z,101213.47
2022-11-29T20:24:03.634Z,101204.56
2022-11-29T20:26:32.267Z,101218.16
2022-11-29T20:29:00.292Z,101224.13
2022-11-29T20:31:27.357Z,101223.88
2022-11-29T20:33:57.621Z,101230.38
2022-11-29T20:36:43.081Z,101241.84
2022-11-29T20:39:25.213Z,101238.94
2022-11-29T20:42:13.819Z,101250.19
2022-11-29T20:44:54.222Z,101249.88
2022-11-29T20:47:24.335Z,101266.19
2022-11-29T20:49:51.709Z,101277.88
2022-11-29T20:52:27.639Z,101276.38
2022-11-29T20:54:54.713Z,101284.81
2022-11-29T20:57:21.654Z,101285.44
2022-11-29T20:59:48.626Z,101281.16
2022-11-29T21:02:15.579Z,101286.47
2022-11-29T21:04:42.522Z,101291.00
2022-11-29T21:07:09.381Z,101278.44
2022-11-29T21:09:36.229Z,101288.88
2022-11-29T21:12:03.563Z,101284.53
2022-11-29T21:14:30.618Z,101298.66
2022-11-29T21:16:57.941Z,101281.19
2022-11-29T21:19:26.214Z,101294.97
2022-11-29T21:21:59.072Z,101300.34
2022-11-29T21:24:39.756Z,101302.84
2022-11-29T21:27:13.064Z,101294.59
2022-11-29T21:29:40.331Z,101313.22
2022-11-29T21:32:07.862Z,101315.91
2022-11-29T21:34:34.960Z,101316.91
2022-11-29T21:37:01.909Z,101304.50
2022-11-29T21:39:33.975Z,101308.06
2022-11-29T21:42:00.988Z,101309.13
2022-11-29T21:44:28.082Z,101307.72
2022-11-29T21:46:55.029Z,101296.78
2022-11-29T21:49:22.019Z,101311.09
2022-11-29T21:51:49.132Z,101300.31
2022-11-29T21:54:16.186Z,101292.97
2022-11-29T21:56:43.128Z,101302.78
2022-11-29T21:59:10.054Z,101305.69
2022-11-29T22:01:37.253Z,101301.50
2022-11-29T22:04:04.603Z,101300.72
2022-11-29T22:06:31.509Z,101313.72
2022-11-29T22:09:00.059Z,101311.25
2022-11-29T22:11:35.423Z,101305.44
2022-11-29T22:14:15.362Z,101297.50
2022-11-29T22:16:47.069Z,101304.41
2022-11-29T22:19:16.625Z,101295.88
2022-11-29T22:21:46.888Z,101291.00
2022-11-29T22:24:15.097Z,101287.75
2022-11-29T22:26:43.826Z,101282.63
2022-11-29T22:29:14.171Z,101290.22
2022-11-29T22:31:45.517Z,101282.53
2022-11-29T22:34:13.174Z,101284.59
2022-11-29T22:36:40.580Z,101265.16
2022-11-29T22:39:09.105Z,101264.66
2022-11-29T22:41:38.892Z,101261.91
2022-11-29T22:44:06.785Z,101273.94
2022-11-29T22:46:35.770Z,101252.09
2022-11-29T22:49:03.375Z,101268.66
2022-11-29T22:51:33.476Z,101249.63
2022-11-29T22:54:03.218Z,101258.13
2022-11-29T22:56:32.742Z,101247.94
2022-11-29T22:58:59.996Z,101252.47
2022-11-29T23:01:29.065Z,101256.19
2022-11-29T23:03:58.124Z,101242.19
2022-11-29T23:06:30.133Z,101243.41
2022-11-29T23:08:59.879Z,101235.88
2022-11-29T23:11:28.906Z,101226.53
2022-11-29T23:13:56.255Z,101220.78
2022-11-29T23:16:28.139Z,101223.59
2022-11-29T23:18:56.581Z,101216.22
2022-11-29T23:21:31.815Z,101221.88
2022-11-29T23:24:01.014Z,101212.03
2022-11-29T23:26:40.315Z,101221.75
2022-11-29T23:29:11.147Z,101222.66
2022-11-29T23:31:38.367Z,101235.13
2022-11-29T23:34:05.596Z,101225.53
2022-11-29T23:36:32.991Z,101230.44
2022-11-29T23:39:00.550Z,101216.41
2022-11-29T23:41:27.498Z,101211.59
2022-11-29T23:43:54.477Z,101210.31
2022-11-29T23:46:24.240Z,101214.56
2022-11-29T23:48:51.701Z,101204.50
2022-11-29T23:51:19.846Z,101223.13
2022-11-29T23:53:50.442Z,101218.25
2022-11-29T23:56:18.257Z,101203.88
2022-11-29T23:58:45.705Z,101206.47
